sensor_id;sensor_type;location;lat;lon;timestamp;P1;durP1;ratioP1;P2;durP2;ratioP2
691;SDS011;328;50.086;8.576;2022-09-27T00:00:15;1.10;;;0.80;;
691;SDS011;328;50.086;8.576;2022-09-27T00:02:42;2.20;;;1.00;;
691;SDS011;328;50.086;8.576;2022-09-27T00:05:11;1.37;;;1.27;;
691;SDS011;328;50.086;8.576;2022-09-27T00:07:39;1.90;;;1.20;;
691;SDS011;328;50.086;8.576;2022-09-27T00:10:07;1.20;;;1.00;;
691;SDS011;328;50.086;8.576;2022-09-27T00:12:35;2.23;;;0.70;;
691;SDS011;328;50.086;8.576;2022-09-27T00:15:03;2.30;;;0.83;;
691;SDS011;328;50.086;8.576;2022-09-27T00:17:31;1.20;;;1.10;;
691;SDS011;328;50.086;8.576;2022-09-27T00:19:58;1.00;;;0.80;;
691;SDS011;328;50.086;8.576;2022-09-27T00:22:27;0.87;;;0.63;;
691;SDS011;328;50.086;8.576;2022-09-27T00:24:56;1.57;;;0.93;;
691;SDS011;328;50.086;8.576;2022-09-27T00:27:24;0.90;;;0.60;;
691;SDS011;328;50.086;8.576;2022-09-27T00:29:53;0.90;;;0.70;;
691;SDS011;328;50.086;8.576;2022-09-27T00:32:20;1.30;;;0.73;;
691;SDS011;328;50.086;8.576;2022-09-27T00:34:48;1.50;;;1.00;;
691;SDS011;328;50.086;8.576;2022-09-27T00:37:15;1.57;;;0.97;;
691;SDS011;328;50.086;8.576;2022-09-27T00:39:44;0.90;;;0.53;;
691;SDS011;328;50.086;8.576;2022-09-27T00:42:12;0.90;;;0.67;;
691;SDS011;328;50.086;8.576;2022-09-27T00:44:52;0.80;;;0.70;;
691;SDS011;328;50.086;8.576;2022-09-27T00:47:27;2.40;;;0.87;;
691;SDS011;328;50.086;8.576;2022-09-27T00:49:57;1.40;;;0.70;;
691;SDS011;328;50.086;8.576;2022-09-27T00:52:28;0.87;;;0.70;;
691;SDS011;328;50.086;8.576;2022-09-27T00:55:01;0.80;;;0.67;;
691;SDS011;328;50.086;8.576;2022-09-27T00:57:29;1.50;;;0.80;;
691;SDS011;328;50.086;8.576;2022-09-27T00:59:58;1.30;;;0.90;;
691;SDS011;328;50.086;8.576;2022-09-27T01:02:30;1.10;;;0.70;;
691;SDS011;328;50.086;8.576;2022-09-27T01:04:58;1.20;;;0.73;;
691;SDS011;328;50.086;8.576;2022-09-27T01:07:27;1.10;;;0.60;;
691;SDS011;328;50.086;8.576;2022-09-27T01:09:54;3.00;;;0.70;;
691;SDS011;328;50.086;8.576;2022-09-27T01:12:25;0.80;;;0.70;;
691;SDS011;328;50.086;8.576;2022-09-27T01:15:01;0.80;;;0.67;;
691;SDS011;328;50.086;8.576;2022-09-27T01:17:38;1.63;;;0.80;;
691;SDS011;328;50.086;8.576;2022-09-27T01:20:17;1.13;;;0.67;;
691;SDS011;328;50.086;8.576;2022-09-27T01:22:52;1.27;;;0.70;;
691;SDS011;328;50.086;8.576;2022-09-27T01:25:30;1.10;;;0.60;;
691;SDS011;328;50.086;8.576;2022-09-27T01:31:02;1.47;;;0.70;;
691;SDS011;328;50.086;8.576;2022-09-27T01:33:34;3.27;;;1.10;;
691;SDS011;328;50.086;8.576;2022-09-27T01:36:16;1.73;;;0.80;;
691;SDS011;328;50.086;8.576;2022-09-27T01:38:50;1.10;;;0.90;;
691;SDS011;328;50.086;8.576;2022-09-27T01:41:26;1.30;;;0.90;;
691;SDS011;328;50.086;8.576;2022-09-27T01:43:58;1.10;;;0.77;;
691;SDS011;328;50.086;8.576;2022-09-27T01:46:32;1.20;;;0.90;;
691;SDS011;328;50.086;8.576;2022-09-27T01:49:03;1.83;;;0.70;;
691;SDS011;328;50.086;8.576;2022-09-27T01:51:32;0.90;;;0.70;;
691;SDS011;328;50.086;8.576;2022-09-27T01:54:03;0.90;;;0.57;;
691;SDS011;328;50.086;8.576;2022-09-27T01:56:32;1.63;;;0.80;;
691;SDS011;328;50.086;8.576;2022-09-27T01:59:04;1.37;;;0.60;;
691;SDS011;328;50.086;8.576;2022-09-27T02:01:35;1.40;;;0.90;;
691;SDS011;328;50.086;8.576;2022-09-27T02:04:05;1.10;;;0.80;;
691;SDS011;328;50.086;8.576;2022-09-27T02:06:35;1.23;;;0.67;;
691;SDS011;328;50.086;8.576;2022-09-27T02:09:06;1.23;;;0.80;;
691;SDS011;328;50.086;8.576;2022-09-27T02:11:37;3.03;;;0.77;;
691;SDS011;328;50.086;8.576;2022-09-27T02:14:07;5.13;;;0.80;;
691;SDS011;328;50.086;8.576;2022-09-27T02:16:43;1.30;;;0.93;;
691;SDS011;328;50.086;8.576;2022-09-27T02:19:17;1.43;;;1.00;;
691;SDS011;328;50.086;8.576;2022-09-27T02:21:52;1.90;;;0.70;;
691;SDS011;328;50.086;8.576;2022-09-27T02:24:23;1.37;;;0.90;;
691;SDS011;328;50.086;8.576;2022-09-27T02:26:58;1.20;;;0.70;;
691;SDS011;328;50.086;8.576;2022-09-27T02:29:31;3.33;;;0.90;;
691;SDS011;328;50.086;8.576;2022-09-27T02:32:02;1.90;;;0.77;;
691;SDS011;328;50.086;8.576;2022-09-27T02:34:30;1.30;;;0.87;;
691;SDS011;328;50.086;8.576;2022-09-27T02:36:58;1.20;;;0.90;;
691;SDS011;328;50.086;8.576;2022-09-27T02:39:26;3.60;;;1.33;;
691;SDS011;328;50.086;8.576;2022-09-27T02:41:54;2.30;;;1.10;;
691;SDS011;328;50.086;8.576;2022-09-27T02:44:23;4.60;;;1.53;;
691;SDS011;328;50.086;8.576;2022-09-27T02:46:58;2.03;;;1.67;;
691;SDS011;328;50.086;8.576;2022-09-27T02:49:41;3.40;;;1.50;;
691;SDS011;328;50.086;8.576;2022-09-27T02:52:16;1.30;;;1.00;;
691;SDS011;328;50.086;8.576;2022-09-27T02:54:51;2.13;;;1.00;;
691;SDS011;328;50.086;8.576;2022-09-27T02:57:26;4.53;;;1.33;;
691;SDS011;328;50.086;8.576;2022-09-27T03:00:02;1.20;;;1.07;;
691;SDS011;328;50.086;8.576;2022-09-27T03:02:34;2.37;;;1.43;;
691;SDS011;328;50.086;8.576;2022-09-27T03:05:06;5.33;;;1.63;;
691;SDS011;328;50.086;8.576;2022-09-27T03:07:35;2.70;;;1.87;;
691;SDS011;328;50.086;8.576;2022-09-27T03:10:03;4.57;;;1.53;;
691;SDS011;328;50.086;8.576;2022-09-27T03:12:32;3.83;;;1.70;;
691;SDS011;328;50.086;8.576;2022-09-27T03:14:59;2.87;;;1.30;;
691;SDS011;328;50.086;8.576;2022-09-27T03:17:27;1.67;;;1.47;;
691;SDS011;328;50.086;8.576;2022-09-27T03:19:56;1.70;;;1.50;;
691;SDS011;328;50.086;8.576;2022-09-27T03:22:23;2.63;;;1.60;;
691;SDS011;328;50.086;8.576;2022-09-27T03:24:51;1.73;;;1.40;;
691;SDS011;328;50.086;8.576;2022-09-27T03:27:19;2.33;;;1.50;;
691;SDS011;328;50.086;8.576;2022-09-27T03:29:46;1.63;;;1.00;;
691;SDS011;328;50.086;8.576;2022-09-27T03:32:13;4.60;;;1.20;;
691;SDS011;328;50.086;8.576;2022-09-27T03:34:41;1.40;;;0.90;;
691;SDS011;328;50.086;8.576;2022-09-27T03:37:10;2.70;;;0.90;;
691;SDS011;328;50.086;8.576;2022-09-27T03:39:37;1.10;;;0.80;;
691;SDS011;328;50.086;8.576;2022-09-27T03:42:05;2.10;;;1.17;;
691;SDS011;328;50.086;8.576;2022-09-27T03:44:33;2.70;;;1.30;;
691;SDS011;328;50.086;8.576;2022-09-27T03:47:00;1.00;;;0.70;;
691;SDS011;328;50.086;8.576;2022-09-27T03:49:28;1.17;;;1.00;;
691;SDS011;328;50.086;8.576;2022-09-27T03:51:55;1.00;;;0.80;;
691;SDS011;328;50.086;8.576;2022-09-27T03:54:24;2.17;;;1.00;;
691;SDS011;328;50.086;8.576;2022-09-27T03:56:51;1.20;;;0.70;;
691;SDS011;328;50.086;8.576;2022-09-27T03:59:19;4.63;;;0.87;;
691;SDS011;328;50.086;8.576;2022-09-27T04:01:46;1.10;;;0.60;;
691;SDS011;328;50.086;8.576;2022-09-27T04:04:14;1.00;;;0.70;;
691;SDS011;328;50.086;8.576;2022-09-27T04:06:42;1.00;;;0.73;;
691;SDS011;328;50.086;8.576;2022-09-27T04:09:09;1.83;;;0.87;;
691;SDS011;328;50.086;8.576;2022-09-27T04:11:38;1.87;;;1.30;;
691;SDS011;328;50.086;8.576;2022-09-27T04:14:05;1.20;;;0.90;;
691;SDS011;328;50.086;8.576;2022-09-27T04:16:34;1.10;;;0.80;;
691;SDS011;328;50.086;8.576;2022-09-27T04:19:01;1.17;;;0.70;;
691;SDS011;328;50.086;8.576;2022-09-27T04:21:29;2.40;;;0.60;;
691;SDS011;328;50.086;8.576;2022-09-27T04:23:56;1.00;;;0.60;;
691;SDS011;328;50.086;8.576;2022-09-27T04:26:24;0.90;;;0.60;;
691;SDS011;328;50.086;8.576;2022-09-27T04:28:53;1.57;;;0.63;;
691;SDS011;328;50.086;8.576;2022-09-27T04:31:20;0.93;;;0.63;;
691;SDS011;328;50.086;8.576;2022-09-27T04:33:48;1.00;;;0.60;;
691;SDS011;328;50.086;8.576;2022-09-27T04:36:17;0.80;;;0.50;;
691;SDS011;328;50.086;8.576;2022-09-27T04:38:53;1.40;;;0.60;;
691;SDS011;328;50.086;8.576;2022-09-27T04:41:21;0.80;;;0.50;;
691;SDS011;328;50.086;8.576;2022-09-27T04:43:50;3.50;;;0.67;;
691;SDS011;328;50.086;8.576;2022-09-27T04:46:25;1.00;;;0.70;;
691;SDS011;328;50.086;8.576;2022-09-27T04:48:57;1.23;;;1.13;;
691;SDS011;328;50.086;8.576;2022-09-27T04:51:25;1.53;;;0.60;;
691;SDS011;328;50.086;8.576;2022-09-27T04:53:54;1.20;;;0.87;;
691;SDS011;328;50.086;8.576;2022-09-27T04:56:22;1.47;;;0.80;;
691;SDS011;328;50.086;8.576;2022-09-27T04:58:49;1.90;;;0.60;;
691;SDS011;328;50.086;8.576;2022-09-27T05:01:17;1.47;;;0.63;;
691;SDS011;328;50.086;8.576;2022-09-27T05:03:46;1.17;;;0.73;;
691;SDS011;328;50.086;8.576;2022-09-27T05:06:13;1.63;;;1.07;;
691;SDS011;328;50.086;8.576;2022-09-27T05:08:41;1.10;;;0.73;;
691;SDS011;328;50.086;8.576;2022-09-27T05:11:08;2.10;;;0.60;;
691;SDS011;328;50.086;8.576;2022-09-27T05:13:36;1.00;;;0.60;;
691;SDS011;328;50.086;8.576;2022-09-27T05:16:03;2.50;;;0.90;;
691;SDS011;328;50.086;8.576;2022-09-27T05:18:31;2.80;;;0.60;;
691;SDS011;328;50.086;8.576;2022-09-27T05:21:00;2.90;;;1.13;;
691;SDS011;328;50.086;8.576;2022-09-27T05:23:28;1.43;;;0.60;;
691;SDS011;328;50.086;8.576;2022-09-27T05:25:55;0.90;;;0.50;;
691;SDS011;328;50.086;8.576;2022-09-27T05:28:23;0.80;;;0.60;;
691;SDS011;328;50.086;8.576;2022-09-27T05:30:51;1.20;;;0.80;;
691;SDS011;328;50.086;8.576;2022-09-27T05:33:18;1.00;;;0.60;;
691;SDS011;328;50.086;8.576;2022-09-27T05:35:50;0.70;;;0.50;;
691;SDS011;328;50.086;8.576;2022-09-27T05:38:19;0.87;;;0.50;;
691;SDS011;328;50.086;8.576;2022-09-27T05:40:47;0.70;;;0.50;;
691;SDS011;328;50.086;8.576;2022-09-27T05:43:16;1.73;;;0.70;;
691;SDS011;328;50.086;8.576;2022-09-27T05:45:45;2.20;;;0.70;;
691;SDS011;328;50.086;8.576;2022-09-27T05:48:12;0.80;;;0.80;;
691;SDS011;328;50.086;8.576;2022-09-27T05:50:40;1.43;;;0.53;;
691;SDS011;328;50.086;8.576;2022-09-27T05:53:08;0.97;;;0.70;;
691;SDS011;328;50.086;8.576;2022-09-27T05:55:38;1.20;;;0.77;;
691;SDS011;328;50.086;8.576;2022-09-27T05:58:06;1.30;;;0.90;;
691;SDS011;328;50.086;8.576;2022-09-27T06:00:34;2.13;;;0.63;;
691;SDS011;328;50.086;8.576;2022-09-27T06:03:02;1.13;;;0.63;;
691;SDS011;328;50.086;8.576;2022-09-27T06:05:33;0.80;;;0.60;;
691;SDS011;328;50.086;8.576;2022-09-27T06:08:05;1.13;;;0.90;;
691;SDS011;328;50.086;8.576;2022-09-27T06:10:34;1.23;;;1.00;;
691;SDS011;328;50.086;8.576;2022-09-27T06:13:04;0.80;;;0.50;;
691;SDS011;328;50.086;8.576;2022-09-27T06:15:33;1.00;;;0.83;;
691;SDS011;328;50.086;8.576;2022-09-27T06:18:02;1.07;;;0.70;;
691;SDS011;328;50.086;8.576;2022-09-27T06:20:31;1.30;;;0.60;;
691;SDS011;328;50.086;8.576;2022-09-27T06:23:03;0.90;;;0.80;;
691;SDS011;328;50.086;8.576;2022-09-27T06:25:32;1.20;;;0.73;;
691;SDS011;328;50.086;8.576;2022-09-27T06:28:00;3.80;;;0.70;;
691;SDS011;328;50.086;8.576;2022-09-27T06:30:29;0.80;;;0.70;;
691;SDS011;328;50.086;8.576;2022-09-27T06:32:57;1.10;;;0.67;;
691;SDS011;328;50.086;8.576;2022-09-27T06:35:25;0.93;;;0.70;;
691;SDS011;328;50.086;8.576;2022-09-27T06:37:54;0.97;;;0.83;;
691;SDS011;328;50.086;8.576;2022-09-27T06:40:21;1.10;;;0.70;;
691;SDS011;328;50.086;8.576;2022-09-27T06:42:52;1.07;;;0.73;;
691;SDS011;328;50.086;8.576;2022-09-27T06:45:20;1.67;;;0.73;;
691;SDS011;328;50.086;8.576;2022-09-27T06:47:48;2.17;;;0.60;;
691;SDS011;328;50.086;8.576;2022-09-27T06:50:16;2.70;;;0.90;;
691;SDS011;328;50.086;8.576;2022-09-27T06:52:46;1.13;;;0.73;;
691;SDS011;328;50.086;8.576;2022-09-27T06:55:14;1.40;;;0.70;;
691;SDS011;328;50.086;8.576;2022-09-27T06:57:42;1.00;;;0.90;;
691;SDS011;328;50.086;8.576;2022-09-27T07:00:27;0.97;;;0.53;;
691;SDS011;328;50.086;8.576;2022-09-27T07:02:57;1.70;;;0.70;;
691;SDS011;328;50.086;8.576;2022-09-27T07:05:27;2.00;;;0.63;;
691;SDS011;328;50.086;8.576;2022-09-27T07:07:55;0.87;;;0.60;;
691;SDS011;328;50.086;8.576;2022-09-27T07:10:23;2.10;;;0.60;;
691;SDS011;328;50.086;8.576;2022-09-27T07:12:52;1.07;;;0.60;;
691;SDS011;328;50.086;8.576;2022-09-27T07:15:20;11.73;;;0.90;;
691;SDS011;328;50.086;8.576;2022-09-27T07:17:54;4.17;;;1.30;;
691;SDS011;328;50.086;8.576;2022-09-27T07:20:24;0.80;;;0.60;;
691;SDS011;328;50.086;8.576;2022-09-27T07:22:52;1.00;;;0.70;;
691;SDS011;328;50.086;8.576;2022-09-27T07:25:20;1.47;;;0.60;;
691;SDS011;328;50.086;8.576;2022-09-27T07:27:47;1.00;;;0.60;;
691;SDS011;328;50.086;8.576;2022-09-27T07:30:15;1.00;;;0.70;;
691;SDS011;328;50.086;8.576;2022-09-27T07:32:43;0.90;;;0.53;;
691;SDS011;328;50.086;8.576;2022-09-27T07:35:11;0.80;;;0.60;;
691;SDS011;328;50.086;8.576;2022-09-27T07:37:41;0.90;;;0.60;;
691;SDS011;328;50.086;8.576;2022-09-27T07:40:10;0.83;;;0.50;;
691;SDS011;328;50.086;8.576;2022-09-27T07:42:38;1.17;;;0.60;;
691;SDS011;328;50.086;8.576;2022-09-27T07:45:07;1.27;;;0.50;;
691;SDS011;328;50.086;8.576;2022-09-27T07:47:36;0.90;;;0.73;;
691;SDS011;328;50.086;8.576;2022-09-27T07:50:04;3.30;;;0.90;;
691;SDS011;328;50.086;8.576;2022-09-27T07:52:37;1.00;;;0.50;;
691;SDS011;328;50.086;8.576;2022-09-27T07:55:07;2.30;;;0.77;;
691;SDS011;328;50.086;8.576;2022-09-27T07:57:35;1.77;;;0.70;;
691;SDS011;328;50.086;8.576;2022-09-27T08:00:04;1.40;;;0.80;;
691;SDS011;328;50.086;8.576;2022-09-27T08:02:32;0.80;;;0.70;;
691;SDS011;328;50.086;8.576;2022-09-27T08:05:00;1.47;;;0.57;;
691;SDS011;328;50.086;8.576;2022-09-27T08:07:28;0.80;;;0.50;;
691;SDS011;328;50.086;8.576;2022-09-27T08:09:57;1.07;;;0.47;;
691;SDS011;328;50.086;8.576;2022-09-27T08:12:26;1.00;;;0.50;;
691;SDS011;328;50.086;8.576;2022-09-27T08:14:54;1.60;;;0.70;;
691;SDS011;328;50.086;8.576;2022-09-27T08:17:26;0.93;;;0.70;;
691;SDS011;328;50.086;8.576;2022-09-27T08:19:54;0.83;;;0.50;;
691;SDS011;328;50.086;8.576;2022-09-27T08:22:22;1.27;;;0.60;;
691;SDS011;328;50.086;8.576;2022-09-27T08:24:49;0.93;;;0.50;;
691;SDS011;328;50.086;8.576;2022-09-27T08:27:17;1.77;;;0.73;;
691;SDS011;328;50.086;8.576;2022-09-27T08:29:45;1.93;;;0.60;;
691;SDS011;328;50.086;8.576;2022-09-27T08:32:14;0.70;;;0.50;;
691;SDS011;328;50.086;8.576;2022-09-27T08:34:48;0.90;;;0.70;;
691;SDS011;328;50.086;8.576;2022-09-27T08:37:16;0.70;;;0.50;;
691;SDS011;328;50.086;8.576;2022-09-27T08:39:43;3.30;;;0.60;;
691;SDS011;328;50.086;8.576;2022-09-27T08:42:14;0.80;;;0.60;;
691;SDS011;328;50.086;8.576;2022-09-27T08:44:52;0.97;;;0.83;;
691;SDS011;328;50.086;8.576;2022-09-27T08:47:28;1.10;;;0.70;;
691;SDS011;328;50.086;8.576;2022-09-27T08:50:01;2.00;;;0.93;;
691;SDS011;328;50.086;8.576;2022-09-27T08:52:31;0.90;;;0.60;;
691;SDS011;328;50.086;8.576;2022-09-27T08:55:00;1.23;;;0.70;;
691;SDS011;328;50.086;8.576;2022-09-27T08:57:31;0.90;;;0.60;;
691;SDS011;328;50.086;8.576;2022-09-27T09:00:02;1.43;;;0.50;;
691;SDS011;328;50.086;8.576;2022-09-27T09:02:32;5.33;;;0.90;;
691;SDS011;328;50.086;8.576;2022-09-27T09:05:02;0.90;;;0.50;;
691;SDS011;328;50.086;8.576;2022-09-27T09:07:47;0.97;;;0.50;;
691;SDS011;328;50.086;8.576;2022-09-27T09:10:26;0.87;;;0.67;;
691;SDS011;328;50.086;8.576;2022-09-27T09:13:20;2.70;;;0.50;;
691;SDS011;328;50.086;8.576;2022-09-27T09:15:58;0.90;;;0.60;;
691;SDS011;328;50.086;8.576;2022-09-27T09:18:39;2.50;;;0.60;;
691;SDS011;328;50.086;8.576;2022-09-27T09:21:21;0.90;;;0.50;;
691;SDS011;328;50.086;8.576;2022-09-27T09:23:57;1.03;;;0.80;;
691;SDS011;328;50.086;8.576;2022-09-27T09:26:31;1.57;;;0.67;;
691;SDS011;328;50.086;8.576;2022-09-27T09:31:53;3.83;;;0.70;;
691;SDS011;328;50.086;8.576;2022-09-27T09:34:25;6.40;;;0.80;;
691;SDS011;328;50.086;8.576;2022-09-27T09:36:56;1.10;;;0.50;;
691;SDS011;328;50.086;8.576;2022-09-27T09:39:27;1.27;;;0.50;;
691;SDS011;328;50.086;8.576;2022-09-27T09:42:04;1.37;;;0.70;;
691;SDS011;328;50.086;8.576;2022-09-27T09:44:37;1.00;;;0.57;;
691;SDS011;328;50.086;8.576;2022-09-27T09:47:14;1.40;;;0.87;;
691;SDS011;328;50.086;8.576;2022-09-27T09:49:52;1.10;;;0.53;;
691;SDS011;328;50.086;8.576;2022-09-27T09:52:23;0.90;;;0.60;;
691;SDS011;328;50.086;8.576;2022-09-27T09:54:52;1.73;;;0.60;;
691;SDS011;328;50.086;8.576;2022-09-27T09:57:24;0.97;;;0.50;;
691;SDS011;328;50.086;8.576;2022-09-27T09:59:54;1.33;;;0.50;;
691;SDS011;328;50.086;8.576;2022-09-27T10:02:27;1.20;;;0.60;;
691;SDS011;328;50.086;8.576;2022-09-27T10:04:59;0.87;;;0.50;;
691;SDS011;328;50.086;8.576;2022-09-27T10:07:33;0.90;;;0.40;;
691;SDS011;328;50.086;8.576;2022-09-27T10:10:03;1.93;;;0.77;;
691;SDS011;328;50.086;8.576;2022-09-27T10:12:31;0.80;;;0.50;;
691;SDS011;328;50.086;8.576;2022-09-27T10:14:59;2.50;;;0.50;;
691;SDS011;328;50.086;8.576;2022-09-27T10:17:32;1.13;;;0.70;;
691;SDS011;328;50.086;8.576;2022-09-27T10:20:02;8.27;;;0.83;;
691;SDS011;328;50.086;8.576;2022-09-27T10:22:33;1.00;;;0.60;;
691;SDS011;328;50.086;8.576;2022-09-27T10:25:03;0.70;;;0.53;;
691;SDS011;328;50.086;8.576;2022-09-27T10:27:36;2.00;;;0.40;;
691;SDS011;328;50.086;8.576;2022-09-27T10:30:05;0.80;;;0.60;;
691;SDS011;328;50.086;8.576;2022-09-27T10:32:41;1.23;;;0.50;;
691;SDS011;328;50.086;8.576;2022-09-27T10:35:17;6.10;;;0.60;;
691;SDS011;328;50.086;8.576;2022-09-27T10:37:49;0.80;;;0.40;;
691;SDS011;328;50.086;8.576;2022-09-27T10:40:24;1.57;;;0.47;;
691;SDS011;328;50.086;8.576;2022-09-27T10:42:53;0.70;;;0.50;;
691;SDS011;328;50.086;8.576;2022-09-27T10:45:27;2.00;;;0.50;;
691;SDS011;328;50.086;8.576;2022-09-27T10:47:57;1.03;;;0.40;;
691;SDS011;328;50.086;8.576;2022-09-27T10:50:25;0.90;;;0.50;;
691;SDS011;328;50.086;8.576;2022-09-27T10:53:14;0.90;;;0.50;;
691;SDS011;328;50.086;8.576;2022-09-27T10:55:45;1.90;;;0.90;;
691;SDS011;328;50.086;8.576;2022-09-27T10:58:15;3.10;;;0.60;;
691;SDS011;328;50.086;8.576;2022-09-27T11:00:45;3.00;;;1.07;;
691;SDS011;328;50.086;8.576;2022-09-27T11:03:22;1.00;;;0.50;;
691;SDS011;328;50.086;8.576;2022-09-27T11:05:51;0.80;;;0.50;;
691;SDS011;328;50.086;8.576;2022-09-27T11:08:21;0.83;;;0.50;;
691;SDS011;328;50.086;8.576;2022-09-27T11:13:55;1.33;;;0.60;;
691;SDS011;328;50.086;8.576;2022-09-27T11:19:34;0.80;;;0.60;;
691;SDS011;328;50.086;8.576;2022-09-27T11:22:13;1.47;;;0.67;;
691;SDS011;328;50.086;8.576;2022-09-27T11:24:51;1.07;;;0.67;;
691;SDS011;328;50.086;8.576;2022-09-27T11:27:28;0.70;;;0.40;;
691;SDS011;328;50.086;8.576;2022-09-27T11:30:03;0.70;;;0.50;;
691;SDS011;328;50.086;8.576;2022-09-27T11:32:37;1.63;;;0.63;;
691;SDS011;328;50.086;8.576;2022-09-27T11:35:27;0.80;;;0.50;;
691;SDS011;328;50.086;8.576;2022-09-27T11:38:01;0.80;;;0.50;;
691;SDS011;328;50.086;8.576;2022-09-27T11:40:42;1.00;;;0.63;;
691;SDS011;328;50.086;8.576;2022-09-27T11:43:28;1.37;;;0.87;;
691;SDS011;328;50.086;8.576;2022-09-27T11:46:07;1.00;;;0.60;;
691;SDS011;328;50.086;8.576;2022-09-27T11:48:55;2.20;;;0.80;;
691;SDS011;328;50.086;8.576;2022-09-27T11:51:31;1.47;;;0.67;;
691;SDS011;328;50.086;8.576;2022-09-27T11:54:11;0.70;;;0.53;;
691;SDS011;328;50.086;8.576;2022-09-27T11:56:54;1.90;;;0.60;;
691;SDS011;328;50.086;8.576;2022-09-27T11:59:32;1.10;;;0.70;;
691;SDS011;328;50.086;8.576;2022-09-27T12:02:12;0.93;;;0.77;;
691;SDS011;328;50.086;8.576;2022-09-27T12:04:50;0.80;;;0.60;;
691;SDS011;328;50.086;8.576;2022-09-27T12:07:26;4.63;;;0.87;;
691;SDS011;328;50.086;8.576;2022-09-27T12:09:59;0.70;;;0.50;;
691;SDS011;328;50.086;8.576;2022-09-27T12:12:30;0.80;;;0.50;;
691;SDS011;328;50.086;8.576;2022-09-27T12:14:59;1.00;;;0.80;;
691;SDS011;328;50.086;8.576;2022-09-27T12:17:33;0.80;;;0.53;;
691;SDS011;328;50.086;8.576;2022-09-27T12:20:04;1.20;;;0.60;;
691;SDS011;328;50.086;8.576;2022-09-27T12:22:39;1.10;;;0.60;;
691;SDS011;328;50.086;8.576;2022-09-27T12:25:28;1.00;;;0.70;;
691;SDS011;328;50.086;8.576;2022-09-27T12:27:57;0.90;;;0.60;;
691;SDS011;328;50.086;8.576;2022-09-27T12:30:30;2.23;;;0.60;;
691;SDS011;328;50.086;8.576;2022-09-27T12:33:00;1.20;;;0.70;;
691;SDS011;328;50.086;8.576;2022-09-27T12:35:33;1.17;;;0.80;;
691;SDS011;328;50.086;8.576;2022-09-27T12:38:05;0.90;;;0.73;;
691;SDS011;328;50.086;8.576;2022-09-27T12:40:38;1.17;;;0.67;;
691;SDS011;328;50.086;8.576;2022-09-27T12:43:09;0.87;;;0.53;;
691;SDS011;328;50.086;8.576;2022-09-27T12:45:40;2.60;;;0.80;;
691;SDS011;328;50.086;8.576;2022-09-27T12:48:16;2.13;;;0.80;;
691;SDS011;328;50.086;8.576;2022-09-27T12:50:48;0.77;;;0.60;;
691;SDS011;328;50.086;8.576;2022-09-27T12:53:19;0.93;;;0.73;;
691;SDS011;328;50.086;8.576;2022-09-27T12:55:54;1.10;;;0.70;;
691;SDS011;328;50.086;8.576;2022-09-27T12:58:42;1.20;;;0.60;;
691;SDS011;328;50.086;8.576;2022-09-27T13:01:22;10.00;;;0.90;;
691;SDS011;328;50.086;8.576;2022-09-27T13:03:58;1.77;;;0.70;;
691;SDS011;328;50.086;8.576;2022-09-27T13:06:35;1.10;;;0.60;;
691;SDS011;328;50.086;8.576;2022-09-27T13:09:20;2.20;;;0.83;;
691;SDS011;328;50.086;8.576;2022-09-27T13:11:59;1.43;;;0.53;;
691;SDS011;328;50.086;8.576;2022-09-27T13:14:29;3.23;;;0.80;;
691;SDS011;328;50.086;8.576;2022-09-27T13:16:58;1.17;;;0.67;;
691;SDS011;328;50.086;8.576;2022-09-27T13:19:39;1.97;;;0.73;;
691;SDS011;328;50.086;8.576;2022-09-27T13:22:09;0.97;;;0.70;;
691;SDS011;328;50.086;8.576;2022-09-27T13:24:45;1.10;;;0.70;;
691;SDS011;328;50.086;8.576;2022-09-27T13:27:33;2.40;;;0.87;;
691;SDS011;328;50.086;8.576;2022-09-27T13:33:20;1.23;;;0.70;;
691;SDS011;328;50.086;8.576;2022-09-27T13:36:04;4.83;;;0.87;;
691;SDS011;328;50.086;8.576;2022-09-27T13:38:33;2.23;;;0.97;;
691;SDS011;328;50.086;8.576;2022-09-27T13:41:13;7.83;;;0.80;;
691;SDS011;328;50.086;8.576;2022-09-27T13:43:49;1.60;;;0.70;;
691;SDS011;328;50.086;8.576;2022-09-27T13:46:23;1.00;;;0.80;;
691;SDS011;328;50.086;8.576;2022-09-27T13:48:52;1.73;;;0.80;;
691;SDS011;328;50.086;8.576;2022-09-27T13:51:26;2.60;;;0.80;;
691;SDS011;328;50.086;8.576;2022-09-27T13:53:58;1.57;;;0.80;;
691;SDS011;328;50.086;8.576;2022-09-27T13:56:50;0.80;;;0.50;;
691;SDS011;328;50.086;8.576;2022-09-27T13:59:22;1.10;;;0.40;;
691;SDS011;328;50.086;8.576;2022-09-27T14:01:51;1.20;;;0.70;;
691;SDS011;328;50.086;8.576;2022-09-27T14:04:20;0.90;;;0.67;;
691;SDS011;328;50.086;8.576;2022-09-27T14:06:49;0.90;;;0.60;;
691;SDS011;328;50.086;8.576;2022-09-27T14:09:20;0.73;;;0.50;;
691;SDS011;328;50.086;8.576;2022-09-27T14:11:53;0.90;;;0.60;;
691;SDS011;328;50.086;8.576;2022-09-27T14:14:23;1.00;;;0.60;;
691;SDS011;328;50.086;8.576;2022-09-27T14:16:52;0.80;;;0.50;;
691;SDS011;328;50.086;8.576;2022-09-27T14:19:21;1.50;;;0.80;;
691;SDS011;328;50.086;8.576;2022-09-27T14:21:50;2.20;;;0.73;;
691;SDS011;328;50.086;8.576;2022-09-27T14:24:22;0.93;;;0.60;;
691;SDS011;328;50.086;8.576;2022-09-27T14:27:09;2.60;;;0.60;;
691;SDS011;328;50.086;8.576;2022-09-27T14:29:40;1.10;;;0.70;;
691;SDS011;328;50.086;8.576;2022-09-27T14:32:10;1.00;;;0.60;;
691;SDS011;328;50.086;8.576;2022-09-27T14:34:39;2.10;;;0.67;;
691;SDS011;328;50.086;8.576;2022-09-27T14:37:17;0.80;;;0.50;;
691;SDS011;328;50.086;8.576;2022-09-27T14:39:52;1.00;;;0.73;;
691;SDS011;328;50.086;8.576;2022-09-27T14:42:23;0.80;;;0.60;;
691;SDS011;328;50.086;8.576;2022-09-27T14:45:00;1.23;;;0.60;;
691;SDS011;328;50.086;8.576;2022-09-27T14:47:31;2.13;;;0.67;;
691;SDS011;328;50.086;8.576;2022-09-27T14:50:00;1.03;;;0.70;;
691;SDS011;328;50.086;8.576;2022-09-27T14:52:34;0.80;;;0.60;;
691;SDS011;328;50.086;8.576;2022-09-27T14:55:06;1.47;;;0.67;;
691;SDS011;328;50.086;8.576;2022-09-27T14:57:38;1.00;;;0.70;;
691;SDS011;328;50.086;8.576;2022-09-27T15:00:14;2.40;;;0.80;;
691;SDS011;328;50.086;8.576;2022-09-27T15:02:44;1.17;;;0.60;;
691;SDS011;328;50.086;8.576;2022-09-27T15:05:15;2.33;;;1.00;;
691;SDS011;328;50.086;8.576;2022-09-27T15:07:44;1.77;;;0.70;;
691;SDS011;328;50.086;8.576;2022-09-27T15:10:13;0.90;;;0.80;;
691;SDS011;328;50.086;8.576;2022-09-27T15:12:45;1.10;;;0.70;;
691;SDS011;328;50.086;8.576;2022-09-27T15:15:15;1.20;;;0.80;;
691;SDS011;328;50.086;8.576;2022-09-27T15:17:45;1.87;;;0.90;;
691;SDS011;328;50.086;8.576;2022-09-27T15:20:23;0.90;;;0.60;;
691;SDS011;328;50.086;8.576;2022-09-27T15:23:00;0.93;;;0.50;;
691;SDS011;328;50.086;8.576;2022-09-27T15:25:28;1.00;;;0.70;;
691;SDS011;328;50.086;8.576;2022-09-27T15:28:02;1.17;;;0.67;;
691;SDS011;328;50.086;8.576;2022-09-27T15:30:37;1.53;;;0.80;;
691;SDS011;328;50.086;8.576;2022-09-27T15:33:16;1.40;;;0.70;;
691;SDS011;328;50.086;8.576;2022-09-27T15:35:56;1.37;;;0.87;;
691;SDS011;328;50.086;8.576;2022-09-27T15:38:38;1.70;;;0.90;;
691;SDS011;328;50.086;8.576;2022-09-27T15:41:16;1.13;;;0.80;;
691;SDS011;328;50.086;8.576;2022-09-27T15:43:48;0.97;;;0.67;;
691;SDS011;328;50.086;8.576;2022-09-27T15:46:26;0.87;;;0.70;;
691;SDS011;328;50.086;8.576;2022-09-27T15:51:53;1.07;;;0.80;;
691;SDS011;328;50.086;8.576;2022-09-27T15:54:21;0.90;;;0.80;;
691;SDS011;328;50.086;8.576;2022-09-27T15:56:50;2.27;;;1.23;;
691;SDS011;328;50.086;8.576;2022-09-27T15:59:23;1.20;;;0.80;;
691;SDS011;328;50.086;8.576;2022-09-27T16:01:53;1.93;;;1.17;;
691;SDS011;328;50.086;8.576;2022-09-27T16:04:22;3.40;;;1.30;;
691;SDS011;328;50.086;8.576;2022-09-27T16:06:49;1.30;;;0.90;;
691;SDS011;328;50.086;8.576;2022-09-27T16:09:18;1.20;;;1.10;;
691;SDS011;328;50.086;8.576;2022-09-27T16:11:46;2.03;;;0.90;;
691;SDS011;328;50.086;8.576;2022-09-27T16:14:15;1.30;;;0.90;;
691;SDS011;328;50.086;8.576;2022-09-27T16:16:45;1.27;;;1.17;;
691;SDS011;328;50.086;8.576;2022-09-27T16:19:14;1.30;;;1.20;;
691;SDS011;328;50.086;8.576;2022-09-27T16:21:42;2.03;;;1.33;;
691;SDS011;328;50.086;8.576;2022-09-27T16:24:11;1.77;;;1.50;;
691;SDS011;328;50.086;8.576;2022-09-27T16:26:38;2.13;;;1.70;;
691;SDS011;328;50.086;8.576;2022-09-27T16:29:08;4.23;;;2.60;;